createdAt,value
2017-07-24T00:00:24.560Z,0
2017-07-24T00:00:50.721Z,0
2017-07-24T00:01:16.861Z,0
2017-07-24T00:01:43.008Z,0
2017-07-24T00:02:09.142Z,0
2017-07-24T00:02:35.234Z,0
2017-07-24T00:03:01.340Z,0
2017-07-24T00:03:27.505Z,0
2017-07-24T00:03:53.605Z,0
2017-07-24T00:04:19.710Z,0
2017-07-24T00:04:45.848Z,0
2017-07-24T00:05:11.995Z,0
2017-07-24T00:05:38.102Z,0
2017-07-24T00:06:04.251Z,0
2017-07-24T00:06:30.369Z,0
2017-07-24T00:06:56.531Z,0
2017-07-24T00:07:22.653Z,0
2017-07-24T00:07:48.790Z,0
2017-07-24T00:08:14.923Z,0
2017-07-24T00:08:41.070Z,0
2017-07-24T00:09:07.257Z,0
2017-07-24T00:09:33.406Z,0
2017-07-24T00:09:59.546Z,0
2017-07-24T00:10:25.759Z,0
2017-07-24T00:10:51.912Z,0
2017-07-24T00:11:18.028Z,0
2017-07-24T00:11:44.161Z,0
2017-07-24T00:12:10.316Z,0
2017-07-24T00:12:36.478Z,0
2017-07-24T00:13:02.660Z,0
2017-07-24T00:13:28.820Z,0
2017-07-24T00:13:54.964Z,0
2017-07-24T00:14:21.088Z,0
2017-07-24T00:14:47.230Z,0
2017-07-24T00:15:13.412Z,0
2017-07-24T00:15:39.511Z,0
2017-07-24T00:16:05.627Z,0
2017-07-24T00:16:31.753Z,0
2017-07-24T00:16:57.856Z,0
2017-07-24T00:17:23.942Z,0
2017-07-24T00:17:50.040Z,0
2017-07-24T00:18:16.176Z,0
2017-07-24T00:18:42.291Z,0
2017-07-24T00:19:08.433Z,0
2017-07-24T00:19:34.611Z,0
2017-07-24T00:20:00.742Z,0
2017-07-24T00:20:26.933Z,0
2017-07-24T00:20:53.017Z,0
2017-07-24T00:21:19.168Z,0
2017-07-24T00:21:45.273Z,0
2017-07-24T00:22:11.390Z,0
2017-07-24T00:22:37.508Z,0
2017-07-24T00:23:03.641Z,0
2017-07-24T00:23:29.736Z,0
2017-07-24T00:23:55.875Z,0
2017-07-24T00:24:22.013Z,0
2017-07-24T00:24:48.138Z,0
2017-07-24T00:25:14.250Z,0
2017-07-24T00:25:40.383Z,0
2017-07-24T00:26:06.484Z,0
2017-07-24T00:26:32.621Z,0
2017-07-24T00:26:58.796Z,0
2017-07-24T00:27:24.930Z,0
2017-07-24T00:27:51.091Z,0
2017-07-24T00:28:17.216Z,0
2017-07-24T00:28:43.349Z,0
2017-07-24T00:29:09.461Z,0
2017-07-24T00:29:35.608Z,0
2017-07-24T00:30:01.770Z,0
2017-07-24T00:30:27.915Z,0
2017-07-24T00:30:54.050Z,0
2017-07-24T00:31:20.189Z,0
2017-07-24T00:31:46.343Z,0
2017-07-24T00:32:12.500Z,0
2017-07-24T00:32:38.591Z,0
2017-07-24T00:33:04.722Z,0
2017-07-24T00:33:30.818Z,0
2017-07-24T00:33:56.990Z,0
2017-07-24T00:34:23.130Z,0
2017-07-24T00:34:49.241Z,0
2017-07-24T00:35:15.365Z,0
2017-07-24T00:35:41.506Z,0
2017-07-24T00:36:07.664Z,0
2017-07-24T00:36:33.781Z,0
2017-07-24T00:36:59.887Z,0
2017-07-24T00:37:26.008Z,0
2017-07-24T00:37:52.099Z,0
2017-07-24T00:38:18.263Z,0
2017-07-24T00:38:44.438Z,0
2017-07-24T00:39:10.528Z,0
2017-07-24T00:39:36.690Z,0
2017-07-24T00:40:02.791Z,0
2017-07-24T00:40:28.907Z,0
2017-07-24T00:40:55.058Z,0
2017-07-24T00:41:21.192Z,0
2017-07-24T00:41:47.312Z,0
2017-07-24T00:42:13.434Z,0
2017-07-24T00:42:39.576Z,0
2017-07-24T00:43:05.732Z,0
2017-07-24T00:43:31.892Z,0
2017-07-24T00:43:58.008Z,0
2017-07-24T00:44:24.209Z,0
2017-07-24T00:44:50.428Z,0
2017-07-24T00:45:16.564Z,0
2017-07-24T00:45:42.713Z,0
2017-07-24T00:46:08.848Z,0
2017-07-24T00:46:34.991Z,0
2017-07-24T00:47:01.112Z,0
2017-07-24T00:47:27.259Z,0
2017-07-24T00:47:53.361Z,0
2017-07-24T00:48:19.498Z,0
2017-07-24T00:48:45.607Z,0
2017-07-24T00:49:11.785Z,0
2017-07-24T00:49:37.920Z,0
2017-07-24T00:50:04.038Z,0
2017-07-24T00:50:30.184Z,0
2017-07-24T00:50:56.377Z,0
2017-07-24T00:51:22.522Z,0
2017-07-24T00:51:48.678Z,0
2017-07-24T00:52:14.797Z,0
2017-07-24T00:52:40.923Z,0
2017-07-24T00:53:07.049Z,0
2017-07-24T00:53:33.163Z,0
2017-07-24T00:53:59.309Z,0
2017-07-24T00:54:25.468Z,0
2017-07-24T00:54:51.560Z,0
2017-07-24T00:55:17.649Z,0
2017-07-24T00:55:43.779Z,0
2017-07-24T00:56:09.938Z,0
2017-07-24T00:56:36.079Z,0
2017-07-24T00:57:02.212Z,0
2017-07-24T00:57:28.365Z,0
2017-07-24T00:57:54.479Z,0
2017-07-24T00:58:20.582Z,0
2017-07-24T00:58:46.698Z,0
2017-07-24T00:59:12.859Z,0
2017-07-24T00:59:38.984Z,0
2017-07-24T01:00:05.099Z,0
2017-07-24T01:00:31.284Z,0
2017-07-24T01:00:57.385Z,0
2017-07-24T01:01:23.501Z,0
2017-07-24T01:01:49.705Z,0
2017-07-24T01:02:15.862Z,0
2017-07-24T01:02:41.974Z,0
2017-07-24T01:03:08.124Z,0
2017-07-24T01:03:34.314Z,0
2017-07-24T01:04:00.454Z,0
2017-07-24T01:04:26.637Z,0
2017-07-24T01:04:52.753Z,0
2017-07-24T01:05:18.879Z,0
2017-07-24T01:05:45.013Z,0
2017-07-24T01:06:11.125Z,0
2017-07-24T01:06:37.274Z,0
2017-07-24T01:07:03.381Z,0
2017-07-24T01:07:29.523Z,0
2017-07-24T01:07:55.678Z,0
2017-07-24T01:08:21.806Z,0
2017-07-24T01:08:47.923Z,0
2017-07-24T01:09:14.040Z,0
2017-07-24T01:09:40.208Z,0
2017-07-24T01:10:06.379Z,0
2017-07-24T01:10:32.520Z,0
2017-07-24T01:10:58.650Z,0
2017-07-24T01:11:24.830Z,0
2017-07-24T01:11:50.994Z,0
2017-07-24T01:12:17.173Z,0
2017-07-24T01:12:43.307Z,0
2017-07-24T01:13:09.419Z,0
2017-07-24T01:13:35.517Z,0
2017-07-24T01:14:01.648Z,0
2017-07-24T01:14:27.738Z,0
2017-07-24T01:14:53.858Z,0
2017-07-24T01:15:19.983Z,0
2017-07-24T01:15:46.109Z,0
2017-07-24T01:16:12.244Z,0
2017-07-24T01:16:38.408Z,0
2017-07-24T01:17:04.507Z,0
2017-07-24T01:17:30.698Z,0
2017-07-24T01:17:56.814Z,0
2017-07-24T01:18:22.933Z,0
2017-07-24T01:18:49.095Z,0
2017-07-24T01:19:15.266Z,0
2017-07-24T01:19:41.379Z,0
2017-07-24T01:20:07.541Z,0
2017-07-24T01:20:33.667Z,0
2017-07-24T01:20:59.794Z,0
2017-07-24T01:21:25.889Z,0
2017-07-24T01:21:52.031Z,0
2017-07-24T01:22:18.137Z,0
2017-07-24T01:22:44.231Z,0
2017-07-24T01:23:10.367Z,0
2017-07-24T01:23:36.582Z,0
2017-07-24T01:24:02.728Z,0
2017-07-24T01:24:28.844Z,0
2017-07-24T01:24:54.978Z,0
2017-07-24T01:25:21.130Z,0
2017-07-24T01:25:47.244Z,0
2017-07-24T01:26:13.373Z,0
2017-07-24T01:26:39.514Z,0
2017-07-24T01:27:05.679Z,0
2017-07-24T01:27:31.831Z,0
2017-07-24T01:27:57.943Z,0
2017-07-24T01:28:24.073Z,0
2017-07-24T01:28:50.227Z,0
2017-07-24T01:29:16.316Z,0
2017-07-24T01:29:42.445Z,0
2017-07-24T01:30:08.551Z,0
2017-07-24T01:30:34.663Z,0
2017-07-24T01:31:00.838Z,0
2017-07-24T01:31:27.028Z,0
2017-07-24T01:31:53.143Z,0
2017-07-24T01:32:19.303Z,0
2017-07-24T01:32:45.417Z,0
2017-07-24T01:33:11.521Z,0
2017-07-24T01:33:37.652Z,0
2017-07-24T01:34:03.740Z,0
2017-07-24T01:34:29.887Z,0
2017-07-24T01:34:56.102Z,0
2017-07-24T01:35:22.285Z,0
2017-07-24T01:35:48.450Z,0
2017-07-24T01:36:14.536Z,0
2017-07-24T01:36:40.712Z,0
2017-07-24T01:37:06.852Z,0
2017-07-24T01:37:32.981Z,0
2017-07-24T01:37:59.081Z,0
2017-07-24T01:38:25.213Z,0
2017-07-24T01:38:51.384Z,0
2017-07-24T01:39:17.482Z,0
2017-07-24T01:39:43.643Z,0
2017-07-24T01:40:09.789Z,0
2017-07-24T01:40:35.904Z,0
2017-07-24T01:41:02.040Z,0
2017-07-24T01:41:28.162Z,0
2017-07-24T01:41:54.327Z,0
2017-07-24T01:42:20.461Z,0
2017-07-24T01:42:46.589Z,0
2017-07-24T01:43:12.690Z,0
2017-07-24T01:43:38.812Z,0
2017-07-24T01:44:05.080Z,0
2017-07-24T01:44:31.239Z,0
2017-07-24T01:44:57.364Z,0
2017-07-24T01:45:23.502Z,0
2017-07-24T01:45:49.659Z,0
2017-07-24T01:46:15.759Z,0
2017-07-24T01:46:41.871Z,0
2017-07-24T01:47:07.999Z,0
2017-07-24T01:47:34.133Z,0
2017-07-24T01:48:00.274Z,0
2017-07-24T01:48:26.422Z,0
2017-07-24T01:48:52.694Z,0
2017-07-24T01:49:18.827Z,0
2017-07-24T01:49:45.009Z,0
2017-07-24T01:50:11.149Z,0
2017-07-24T01:50:37.251Z,0
2017-07-24T01:51:03.384Z,0
2017-07-24T01:51:29.520Z,0
2017-07-24T01:51:55.669Z,0
2017-07-24T01:52:21.828Z,0
2017-07-24T01:52:47.920Z,0
2017-07-24T01:53:14.065Z,0
2017-07-24T01:53:40.200Z,0
2017-07-24T01:54:06.403Z,0
2017-07-24T01:54:32.519Z,0
2017-07-24T01:54:58.652Z,0
2017-07-24T01:55:24.803Z,0
2017-07-24T01:55:50.968Z,0
2017-07-24T01:56:17.108Z,0
2017-07-24T01:56:43.255Z,0
2017-07-24T01:57:09.396Z,0
2017-07-24T01:57:35.571Z,0
2017-07-24T01:58:01.732Z,0
2017-07-24T01:58:27.871Z,0
2017-07-24T01:58:53.993Z,0
2017-07-24T01:59:20.182Z,0
2017-07-24T01:59:46.294Z,0
2017-07-24T02:00:12.424Z,0
2017-07-24T02:00:38.589Z,0
2017-07-24T02:01:04.690Z,0
2017-07-24T02:01:30.824Z,0
2017-07-24T02:01:56.963Z,0
2017-07-24T02:02:23.111Z,0
2017-07-24T02:02:49.274Z,0
2017-07-24T02:03:15.417Z,0
2017-07-24T02:03:41.562Z,0
2017-07-24T02:04:07.725Z,0
2017-07-24T02:04:33.867Z,0
2017-07-24T02:04:59.985Z,0
2017-07-24T02:05:26.088Z,0
2017-07-24T02:05:52.237Z,0
2017-07-24T02:06:18.429Z,0
2017-07-24T02:06:44.564Z,0
2017-07-24T02:07:10.683Z,0
2017-07-24T02:07:36.845Z,0
2017-07-24T02:08:02.993Z,0
2017-07-24T02:08:29.131Z,0
2017-07-24T02:08:55.240Z,0
2017-07-24T02:09:21.392Z,0
2017-07-24T02:09:47.508Z,0
2017-07-24T02:10:13.640Z,0
2017-07-24T02:10:39.821Z,0
2017-07-24T02:11:05.993Z,0
2017-07-24T02:11:32.140Z,0
2017-07-24T02:11:58.300Z,0
2017-07-24T02:12:24.410Z,0
2017-07-24T02:12:50.533Z,0
2017-07-24T02:13:16.673Z,0
2017-07-24T02:13:42.830Z,0
2017-07-24T02:14:08.958Z,0
2017-07-24T02:14:35.076Z,0
2017-07-24T02:15:01.177Z,0
2017-07-24T02:15:27.364Z,0
2017-07-24T02:15:53.452Z,0
2017-07-24T02:16:19.602Z,0
2017-07-24T02:16:45.722Z,0
2017-07-24T02:17:11.907Z,0
2017-07-24T02:17:38.036Z,0
2017-07-24T02:18:04.177Z,0
2017-07-24T02:18:30.278Z,0
2017-07-24T02:18:56.384Z,0
2017-07-24T02:19:22.573Z,0
2017-07-24T02:19:48.745Z,0
2017-07-24T02:20:14.876Z,0
2017-07-24T02:20:41.015Z,0
2017-07-24T02:21:07.184Z,0
2017-07-24T02:21:33.317Z,0
2017-07-24T02:21:59.513Z,0
2017-07-24T02:22:25.672Z,0
2017-07-24T02:22:51.834Z,0
2017-07-24T02:23:18.035Z,0
2017-07-24T02:23:44.221Z,0
2017-07-24T02:24:10.387Z,0
2017-07-24T02:24:36.483Z,0
2017-07-24T02:25:02.619Z,0
2017-07-24T02:25:28.791Z,0
2017-07-24T02:25:54.904Z,0
2017-07-24T02:26:21.091Z,0
2017-07-24T02:26:47.214Z,0
2017-07-24T02:27:13.304Z,0
2017-07-24T02:27:39.459Z,0
2017-07-24T02:28:05.552Z,0
2017-07-24T02:28:31.686Z,0
2017-07-24T02:28:57.778Z,0
2017-07-24T02:29:23.869Z,0
2017-07-24T02:29:50.034Z,0
2017-07-24T02:30:16.187Z,0
2017-07-24T02:30:42.326Z,0
2017-07-24T02:31:08.482Z,0
2017-07-24T02:31:34.608Z,0
2017-07-24T02:32:00.723Z,0
2017-07-24T02:32:26.872Z,0
2017-07-24T02:32:53.033Z,0
2017-07-24T02:33:19.150Z,0
2017-07-24T02:33:45.275Z,0
2017-07-24T02:34:11.388Z,0
2017-07-24T02:34:37.547Z,0
2017-07-24T02:35:03.703Z,0
2017-07-24T02:35:29.842Z,0
2017-07-24T02:35:55.996Z,0
2017-07-24T02:36:22.211Z,0
2017-07-24T02:36:48.348Z,0
2017-07-24T02:37:14.471Z,0
2017-07-24T02:37:40.605Z,0
2017-07-24T02:38:06.699Z,0
2017-07-24T02:38:32.839Z,0
2017-07-24T02:38:59.005Z,0
2017-07-24T02:39:25.122Z,0
2017-07-24T02:39:51.262Z,0
2017-07-24T02:40:17.370Z,0
2017-07-24T02:40:43.490Z,0
2017-07-24T02:41:09.655Z,0
2017-07-24T02:41:35.815Z,0
2017-07-24T02:42:01.997Z,0
2017-07-24T02:42:28.138Z,0
2017-07-24T02:42:54.291Z,0
2017-07-24T02:43:20.479Z,0
2017-07-24T02:43:46.595Z,0
2017-07-24T02:44:12.772Z,0
2017-07-24T02:44:38.892Z,0
2017-07-24T02:45:05.051Z,0
2017-07-24T02:45:31.233Z,0
2017-07-24T02:45:57.374Z,0
2017-07-24T02:46:23.578Z,0
2017-07-24T02:46:49.711Z,0
2017-07-24T02:47:15.923Z,0
2017-07-24T02:47:42.069Z,0
2017-07-24T02:48:08.260Z,0
2017-07-24T02:48:34.403Z,0
2017-07-24T02:49:00.568Z,0
2017-07-24T02:49:26.702Z,0
2017-07-24T02:49:52.875Z,0
2017-07-24T02:50:19.032Z,0
2017-07-24T02:50:45.170Z,0
2017-07-24T02:51:11.372Z,0
2017-07-24T02:51:37.562Z,0
2017-07-24T02:52:03.706Z,0
2017-07-24T02:52:29.828Z,0
2017-07-24T02:52:56.018Z,0
2017-07-24T02:53:22.112Z,0
2017-07-24T02:53:48.225Z,0
2017-07-24T02:54:14.416Z,0
2017-07-24T02:54:40.540Z,0
2017-07-24T02:55:06.653Z,0
2017-07-24T02:55:32.788Z,0
2017-07-24T02:55:58.930Z,0
2017-07-24T02:56:25.116Z,0
2017-07-24T02:56:51.237Z,0
2017-07-24T02:57:17.330Z,0
2017-07-24T02:57:43.463Z,0
2017-07-24T02:58:09.613Z,0
2017-07-24T02:58:35.802Z,0
2017-07-24T02:59:01.922Z,0
2017-07-24T02:59:28.095Z,0
2017-07-24T02:59:54.224Z,0
2017-07-24T03:00:20.370Z,0
2017-07-24T03:00:46.485Z,0
2017-07-24T03:01:12.621Z,0
2017-07-24T03:01:38.748Z,0
2017-07-24T03:02:04.887Z,0
2017-07-24T03:02:31.096Z,0
2017-07-24T03:02:57.195Z,0
2017-07-24T03:03:23.309Z,0
2017-07-24T03:03:49.485Z,0
2017-07-24T03:04:15.617Z,0
2017-07-24T03:04:41.729Z,0
2017-07-24T03:05:07.878Z,0
2017-07-24T03:05:34.065Z,0
2017-07-24T03:06:00.209Z,0
2017-07-24T03:06:26.355Z,0
2017-07-24T03:06:52.472Z,0
2017-07-24T03:07:18.625Z,0
2017-07-24T03:07:44.758Z,0
2017-07-24T03:08:10.870Z,0
2017-07-24T03:08:37.021Z,0
2017-07-24T03:09:03.155Z,0
2017-07-24T03:09:29.297Z,0
2017-07-24T03:09:55.442Z,0
2017-07-24T03:10:21.605Z,0
2017-07-24T03:10:47.721Z,4
2017-07-24T03:11:13.814Z,4
2017-07-24T03:11:39.925Z,4
2017-07-24T03:12:06.046Z,4
2017-07-24T03:12:32.198Z,4
2017-07-24T03:12:58.287Z,4
2017-07-24T03:13:24.431Z,4
2017-07-24T03:13:50.562Z,0
2017-07-24T03:14:16.738Z,0
2017-07-24T03:14:42.902Z,0
2017-07-24T03:15:09.040Z,0
2017-07-24T03:15:35.138Z,4
2017-07-24T03:16:01.252Z,4
2017-07-24T03:16:27.382Z,4
2017-07-24T03:16:53.534Z,4
2017-07-24T03:17:19.703Z,4
2017-07-24T03:17:45.878Z,4
2017-07-24T03:18:12.070Z,4
2017-07-24T03:18:38.236Z,4
2017-07-24T03:19:04.412Z,8
2017-07-24T03:19:30.554Z,8
2017-07-24T03:19:56.684Z,4
2017-07-24T03:20:22.785Z,4
2017-07-24T03:20:48.924Z,8
2017-07-24T03:21:15.027Z,8
2017-07-24T03:21:41.158Z,8
2017-07-24T03:22:07.296Z,8
2017-07-24T03:22:33.473Z,8
2017-07-24T03:22:59.608Z,12
2017-07-24T03:23:25.776Z,8
2017-07-24T03:23:51.873Z,12
2017-07-24T03:24:17.979Z,12
2017-07-24T03:24:44.070Z,12
2017-07-24T03:25:10.160Z,16
2017-07-24T03:25:36.324Z,12
2017-07-24T03:26:02.450Z,16
2017-07-24T03:26:28.594Z,20
2017-07-24T03:26:54.724Z,20
2017-07-24T03:27:20.879Z,20
2017-07-24T03:27:46.990Z,20
2017-07-24T03:28:13.092Z,20
2017-07-24T03:28:39.201Z,24
2017-07-24T03:29:05.294Z,24
2017-07-24T03:29:31.446Z,24
2017-07-24T03:29:57.563Z,28
2017-07-24T03:30:23.720Z,28
2017-07-24T03:30:49.929Z,28
2017-07-24T03:31:16.097Z,32
2017-07-24T03:31:42.221Z,32
2017-07-24T03:32:08.328Z,36
2017-07-24T03:32:34.414Z,36
2017-07-24T03:33:00.513Z,36
2017-07-24T03:33:26.674Z,40
2017-07-24T03:33:52.788Z,40
2017-07-24T03:34:18.960Z,44
2017-07-24T03:34:45.084Z,48
2017-07-24T03:35:11.189Z,48
2017-07-24T03:35:37.379Z,48
2017-07-24T03:36:03.515Z,48
2017-07-24T03:36:29.638Z,52
2017-07-24T03:36:55.826Z,52
2017-07-24T03:37:21.940Z,56
2017-07-24T03:37:48.061Z,60
2017-07-24T03:38:14.223Z,60
2017-07-24T03:38:40.348Z,60
2017-07-24T03:39:06.506Z,64
2017-07-24T03:39:32.639Z,64
2017-07-24T03:39:58.817Z,68
2017-07-24T03:40:24.969Z,68
2017-07-24T03:40:51.112Z,72
2017-07-24T03:41:17.236Z,72
2017-07-24T03:41:43.341Z,72
2017-07-24T03:42:09.490Z,76
2017-07-24T03:42:35.629Z,80
2017-07-24T03:43:01.822Z,80
2017-07-24T03:43:28.002Z,84
2017-07-24T03:43:54.117Z,84
2017-07-24T03:44:20.244Z,88
2017-07-24T03:44:46.372Z,92
2017-07-24T03:45:12.563Z,96
2017-07-24T03:45:38.716Z,100
2017-07-24T03:46:04.884Z,104
2017-07-24T03:46:31.072Z,108
2017-07-24T03:46:57.194Z,116
2017-07-24T03:47:23.358Z,120
2017-07-24T03:47:49.485Z,124
2017-07-24T03:48:15.586Z,128
2017-07-24T03:48:41.727Z,132
2017-07-24T03:49:07.883Z,140
2017-07-24T03:49:34.042Z,140
2017-07-24T03:50:00.185Z,144
2017-07-24T03:50:26.358Z,148
2017-07-24T03:50:52.491Z,152
2017-07-24T03:51:18.607Z,156
2017-07-24T03:51:44.734Z,160
2017-07-24T03:52:10.847Z,164
2017-07-24T03:52:36.971Z,168
2017-07-24T03:53:03.131Z,176
2017-07-24T03:53:29.245Z,176
2017-07-24T03:53:55.367Z,184
2017-07-24T03:54:21.478Z,188
2017-07-24T03:54:47.616Z,192
2017-07-24T03:55:13.789Z,196
2017-07-24T03:55:39.924Z,204
2017-07-24T03:56:06.102Z,208
2017-07-24T03:56:32.239Z,216
2017-07-24T03:56:58.367Z,216
2017-07-24T03:57:24.494Z,220
2017-07-24T03:57:50.656Z,228
2017-07-24T03:58:16.772Z,232
2017-07-24T03:58:42.889Z,236
2017-07-24T03:59:08.994Z,240
2017-07-24T03:59:35.141Z,244
2017-07-24T04:00:01.306Z,252
2017-07-24T04:00:27.519Z,252
2017-07-24T04:00:53.620Z,256
2017-07-24T04:01:19.804Z,264
2017-07-24T04:01:45.987Z,268
2017-07-24T04:02:12.142Z,272
2017-07-24T04:02:38.265Z,280
2017-07-24T04:03:04.412Z,284
2017-07-24T04:03:30.554Z,292
2017-07-24T04:03:56.766Z,296
2017-07-24T04:04:22.917Z,304
2017-07-24T04:04:49.029Z,304
2017-07-24T04:05:15.214Z,308
2017-07-24T04:05:41.313Z,312
2017-07-24T04:06:07.425Z,312
2017-07-24T04:06:33.554Z,312
2017-07-24T04:06:59.686Z,312
2017-07-24T04:07:25.771Z,312
2017-07-24T04:07:51.897Z,312
2017-07-24T04:08:18.003Z,316
2017-07-24T04:08:44.120Z,320
2017-07-24T04:09:10.214Z,328
2017-07-24T04:09:36.346Z,336
2017-07-24T04:10:02.490Z,348
2017-07-24T04:10:28.602Z,360
2017-07-24T04:10:54.767Z,376
2017-07-24T04:11:20.891Z,392
2017-07-24T04:11:47.004Z,412
2017-07-24T04:12:13.109Z,436
2017-07-24T04:12:39.236Z,456
2017-07-24T04:13:05.351Z,484
2017-07-24T04:13:31.507Z,504
2017-07-24T04:13:57.619Z,532
2017-07-24T04:14:23.758Z,552
2017-07-24T04:14:49.878Z,572
2017-07-24T04:15:16.019Z,592
2017-07-24T04:15:42.126Z,604
2017-07-24T04:16:08.309Z,620
2017-07-24T04:16:34.423Z,624
2017-07-24T04:17:00.549Z,628
2017-07-24T04:17:26.682Z,628
2017-07-24T04:17:52.818Z,628
2017-07-24T04:18:18.942Z,628
2017-07-24T04:18:45.048Z,628
2017-07-24T04:19:11.138Z,632
2017-07-24T04:19:37.262Z,640
2017-07-24T04:20:03.333Z,652
2017-07-24T04:20:29.509Z,672
2017-07-24T04:20:55.618Z,688
2017-07-24T04:21:21.723Z,712
2017-07-24T04:21:47.872Z,736
2017-07-24T04:22:14.032Z,764
2017-07-24T04:22:40.147Z,796
2017-07-24T04:23:06.320Z,828
2017-07-24T04:23:32.482Z,856
2017-07-24T04:23:58.630Z,884
2017-07-24T04:24:24.744Z,908
2017-07-24T04:24:50.846Z,928
2017-07-24T04:25:17.043Z,944
2017-07-24T04:25:43.177Z,964
2017-07-24T04:26:09.295Z,984
2017-07-24T04:26:35.416Z,1008
2017-07-24T04:27:01.576Z,1040
2017-07-24T04:27:27.747Z,1072
2017-07-24T04:27:53.861Z,1116
2017-07-24T04:28:19.994Z,1160
2017-07-24T04:28:46.147Z,1208
2017-07-24T04:29:12.285Z,1252
2017-07-24T04:29:38.447Z,1280
2017-07-24T04:30:04.598Z,1308
2017-07-24T04:30:30.725Z,1316
2017-07-24T04:30:56.845Z,1320
2017-07-24T04:31:22.981Z,1320
2017-07-24T04:31:49.091Z,1320
2017-07-24T04:32:15.214Z,1328
2017-07-24T04:32:41.302Z,1340
2017-07-24T04:33:07.487Z,1360
2017-07-24T04:33:33.615Z,1376
2017-07-24T04:33:59.756Z,1396
2017-07-24T04:34:25.934Z,1416
2017-07-24T04:34:52.070Z,1428
2017-07-24T04:35:18.231Z,1436
2017-07-24T04:35:44.332Z,1452
2017-07-24T04:36:10.479Z,1472
2017-07-24T04:36:36.614Z,1492
2017-07-24T04:37:02.767Z,1512
2017-07-24T04:37:28.881Z,1536
2017-07-24T04:37:55.035Z,1560
2017-07-24T04:38:21.166Z,1572
2017-07-24T04:38:47.301Z,1576
2017-07-24T04:39:13.401Z,1568
2017-07-24T04:39:39.564Z,1552
2017-07-24T04:40:05.680Z,1528
2017-07-24T04:40:31.824Z,1504
2017-07-24T04:40:57.954Z,1484
2017-07-24T04:41:24.074Z,1464
2017-07-24T04:41:50.260Z,1448
2017-07-24T04:42:16.345Z,1444
2017-07-24T04:42:42.445Z,1444
2017-07-24T04:43:08.658Z,1448
2017-07-24T04:43:34.747Z,1464
2017-07-24T04:44:00.869Z,1488
2017-07-24T04:44:27.027Z,1512
2017-07-24T04:44:53.150Z,1540
2017-07-24T04:45:19.241Z,1580
2017-07-24T04:45:45.379Z,1632
2017-07-24T04:46:11.529Z,1680
2017-07-24T04:46:37.668Z,1724
2017-07-24T04:47:03.777Z,1760
2017-07-24T04:47:29.921Z,1792
2017-07-24T04:47:56.027Z,1816
2017-07-24T04:48:22.147Z,1840
2017-07-24T04:48:48.239Z,1852
2017-07-24T04:49:14.371Z,1860
2017-07-24T04:49:40.495Z,1864
2017-07-24T04:50:06.585Z,1860
2017-07-24T04:50:32.741Z,1852
2017-07-24T04:50:58.870Z,1836
2017-07-24T04:51:24.985Z,1812
2017-07-24T04:51:51.114Z,1780
2017-07-24T04:52:17.276Z,1740
2017-07-24T04:52:43.387Z,1692
2017-07-24T04:53:09.512Z,1664
2017-07-24T04:53:35.646Z,1660
2017-07-24T04:54:01.738Z,1660
2017-07-24T04:54:27.860Z,1668
2017-07-24T04:54:53.994Z,1668
2017-07-24T04:55:20.166Z,1656
2017-07-24T04:55:46.330Z,1640
2017-07-24T04:56:12.492Z,1616
2017-07-24T04:56:38.617Z,1600
2017-07-24T04:57:04.787Z,1592
2017-07-24T04:57:30.911Z,1592
2017-07-24T04:57:57.068Z,1600
2017-07-24T04:58:23.194Z,1620
2017-07-24T04:58:49.364Z,1644
2017-07-24T04:59:15.455Z,1668
2017-07-24T04:59:41.616Z,1684
2017-07-24T05:00:07.740Z,1696
2017-07-24T05:00:33.856Z,1704
2017-07-24T05:00:59.990Z,1708
2017-07-24T05:01:26.146Z,1696
2017-07-24T05:01:52.261Z,1684
2017-07-24T05:02:18.439Z,1668
2017-07-24T05:02:44.624Z,1648
2017-07-24T05:03:10.735Z,1632
2017-07-24T05:03:36.905Z,1620
2017-07-24T05:04:03.023Z,1608
2017-07-24T05:04:29.152Z,1596
2017-07-24T05:04:55.280Z,1588
2017-07-24T05:05:21.442Z,1580
2017-07-24T05:05:47.544Z,1572
2017-07-24T05:06:13.731Z,1572
2017-07-24T05:06:39.820Z,1588
2017-07-24T05:07:05.966Z,1608
2017-07-24T05:07:32.130Z,1632
2017-07-24T05:07:58.269Z,1664
2017-07-24T05:08:24.388Z,1720
2017-07-24T05:08:50.524Z,1784
2017-07-24T05:09:16.666Z,1844
2017-07-24T05:09:42.794Z,1896
2017-07-24T05:10:08.904Z,1932
2017-07-24T05:10:35.053Z,1948
2017-07-24T05:11:01.214Z,1948
2017-07-24T05:11:27.385Z,1940
2017-07-24T05:11:53.481Z,1936
2017-07-24T05:12:19.643Z,1940
2017-07-24T05:12:45.759Z,1956
2017-07-24T05:13:11.873Z,1980
2017-07-24T05:13:38.038Z,2004
2017-07-24T05:14:04.192Z,2028
2017-07-24T05:14:30.306Z,2044
2017-07-24T05:14:56.413Z,2040
2017-07-24T05:15:22.580Z,2028
2017-07-24T05:15:48.713Z,2016
2017-07-24T05:16:14.891Z,2000
2017-07-24T05:16:41.026Z,1972
2017-07-24T05:17:07.164Z,1944
2017-07-24T05:17:33.288Z,1916
2017-07-24T05:17:59.426Z,1896
2017-07-24T05:18:25.557Z,1888
2017-07-24T05:18:51.685Z,1876
2017-07-24T05:19:17.801Z,1856
2017-07-24T05:19:43.929Z,1832
2017-07-24T05:20:10.033Z,1800
2017-07-24T05:20:36.180Z,1768
2017-07-24T05:21:02.300Z,1728
2017-07-24T05:21:28.413Z,1688
2017-07-24T05:21:54.548Z,1660
2017-07-24T05:22:20.647Z,1644
2017-07-24T05:22:46.737Z,1636
2017-07-24T05:23:12.844Z,1640
2017-07-24T05:23:38.971Z,1652
2017-07-24T05:24:05.084Z,1668
2017-07-24T05:24:31.206Z,1672
2017-07-24T05:24:57.368Z,1676
2017-07-24T05:25:23.458Z,1664
2017-07-24T05:25:49.554Z,1636
2017-07-24T05:26:16.029Z,1620
2017-07-24T05:26:42.182Z,1612
2017-07-24T05:27:08.316Z,1604
2017-07-24T05:27:34.426Z,1600
2017-07-24T05:28:00.551Z,1604
2017-07-24T05:28:26.711Z,1616
2017-07-24T05:28:52.809Z,1608
2017-07-24T05:29:18.973Z,1628
2017-07-24T05:29:45.081Z,1644
2017-07-24T05:30:11.228Z,1648
2017-07-24T05:30:37.339Z,1652
2017-07-24T05:31:03.527Z,1648
2017-07-24T05:31:29.650Z,1656
2017-07-24T05:31:55.781Z,1664
2017-07-24T05:32:21.919Z,1672
2017-07-24T05:32:48.038Z,1684
2017-07-24T05:33:14.171Z,1676
2017-07-24T05:33:40.323Z,1656
2017-07-24T05:34:06.517Z,1636
2017-07-24T05:34:32.754Z,1608
2017-07-24T05:34:58.947Z,1584
2017-07-24T05:35:25.034Z,1576
2017-07-24T05:35:51.141Z,1576
2017-07-24T05:36:17.297Z,1592
2017-07-24T05:36:43.464Z,1616
2017-07-24T05:37:09.747Z,1664
2017-07-24T05:37:35.870Z,1712
2017-07-24T05:38:01.986Z,1756
2017-07-24T05:38:28.113Z,1784
2017-07-24T05:38:54.270Z,1812
2017-07-24T05:39:20.386Z,1816
2017-07-24T05:39:46.530Z,1796
2017-07-24T05:40:12.663Z,1752
2017-07-24T05:40:38.759Z,1692
2017-07-24T05:41:04.894Z,1612
2017-07-24T05:41:31.057Z,1528
2017-07-24T05:41:57.181Z,1472
2017-07-24T05:42:23.272Z,1440
2017-07-24T05:42:49.454Z,1416
2017-07-24T05:43:15.550Z,1400
2017-07-24T05:43:41.741Z,1372
2017-07-24T05:44:07.857Z,1336
2017-07-24T05:44:34.046Z,1296
2017-07-24T05:45:00.182Z,1252
2017-07-24T05:45:26.307Z,1200
2017-07-24T05:45:52.398Z,1156
2017-07-24T05:46:18.531Z,1112
2017-07-24T05:46:44.629Z,1088
2017-07-24T05:47:10.719Z,1080
2017-07-24T05:47:36.821Z,1076
2017-07-24T05:48:02.982Z,1072
2017-07-24T05:48:29.128Z,1072
2017-07-24T05:48:55.277Z,1080
2017-07-24T05:49:21.391Z,1084
2017-07-24T05:49:47.576Z,1092
2017-07-24T05:50:13.702Z,1104
2017-07-24T05:50:39.794Z,1108
2017-07-24T05:51:05.950Z,1108
2017-07-24T05:51:32.055Z,1104
2017-07-24T05:51:58.166Z,1100
2017-07-24T05:52:24.266Z,1096
2017-07-24T05:52:50.452Z,1092
2017-07-24T05:53:16.566Z,1100
2017-07-24T05:53:42.683Z,1112
2017-07-24T05:54:08.834Z,1132
2017-07-24T05:54:34.935Z,1164
2017-07-24T05:55:01.067Z,1204
2017-07-24T05:55:27.180Z,1252
2017-07-24T05:55:53.302Z,1304
2017-07-24T05:56:19.464Z,1372
2017-07-24T05:56:45.583Z,1448
2017-07-24T05:57:11.727Z,1536
2017-07-24T05:57:37.863Z,1632
2017-07-24T05:58:03.985Z,1744
2017-07-24T05:58:30.100Z,1876
2017-07-24T05:58:56.259Z,2032
2017-07-24T05:59:22.355Z,2212
2017-07-24T05:59:48.533Z,2392
2017-07-24T06:00:14.675Z,2528
2017-07-24T06:00:40.793Z,2656
2017-07-24T06:01:06.927Z,2860
2017-07-24T06:01:33.074Z,3096
2017-07-24T06:01:59.168Z,3352
2017-07-24T06:02:25.273Z,3572
2017-07-24T06:02:51.370Z,3716
2017-07-24T06:03:17.510Z,3788
2017-07-24T06:03:43.644Z,3860
2017-07-24T06:04:09.798Z,3892
2017-07-24T06:04:35.911Z,3872
2017-07-24T06:05:02.014Z,3796
2017-07-24T06:05:28.184Z,3700
2017-07-24T06:05:54.320Z,3644
2017-07-24T06:06:20.499Z,3536
2017-07-24T06:06:46.613Z,3388
2017-07-24T06:07:12.744Z,3236
2017-07-24T06:07:38.845Z,3156
2017-07-24T06:08:04.982Z,3060
2017-07-24T06:08:31.109Z,2976
2017-07-24T06:08:57.244Z,2832
2017-07-24T06:09:23.357Z,2680
2017-07-24T06:09:49.483Z,2588
2017-07-24T06:10:15.672Z,2556
2017-07-24T06:10:41.760Z,2492
2017-07-24T06:11:07.917Z,2452